Главная страница
METAR-TAF:

METAR-TAF

Аэропорты :

Кастамону, Турция

широта: 41-19-01N, долгота: 33-47-46E, высота над уровнем моря: 1073 м

Текущие метеонаблюдения

Эта сводка был подготовлена 36 минут назад, в 09:50 UTC
Ветер 6 Узел от северо-восточный, изменяющийся между северный и восточный
Температура 10°C
Влажность 37%
Давление 1019 hPa
Видимость 10 км и более
небольшая облачность на высоте 3000 фута

METAR: LTAL 230950Z 04006KT 350V100 9999 FEW030 10/M04 Q1019

Время: 13:26 (10:26 UTC)

Прогноз

Эта сводка был подготовлена 2 часа и 46 минут назад, в 07:40 UTC
Прогноз действительный с 23-го 09 UTC до 23-го 18 UTC
Ветер 5 Узел от северо-восточный
Видимость 10 км и более
Нет облачности ниже 1500 м, и нет кучево-дождевой облачности
изменения
С 23-го 11 UTC до 23-го 13 UTC
небольшая облачность на высоте 3600 фута

TAF: LTAL 230740Z 2309/2318 04005KT CAVOK BECMG 2311/2313 FEW036

Метеонаблюдения и прогнозы для более 4000 аэропортов (сводки METAR и TAF).

Имеющиеся станции представлены на карте желтыми и красными точками.

Чтобы увидеть название станции, наведите на нее мышь.

Затем щелкните, чтобы увидеть метеонаблюдения и метеопрогнозы.

Управление картой: чтобы увеличить масштаб, щелкните зеленые кнопки с черным крестиком; чтобы уменьшить масштаб, щелкните зеленую кнопку с тире; для просмотра соседних карт щелкайте зеленые стрелки.


METAR-TAF: